createdAt,value
2023-03-16T00:01:57.539Z,1070.00
2023-03-16T00:05:57.636Z,1060.00
2023-03-16T00:09:57.828Z,1058.00
2023-03-16T00:13:57.946Z,1053.00
2023-03-16T00:17:58.146Z,1049.00
2023-03-16T00:21:58.317Z,1045.00
2023-03-16T00:25:58.547Z,1041.00
2023-03-16T00:29:58.672Z,1036.00
2023-03-16T00:33:58.868Z,1034.00
2023-03-16T00:37:59.026Z,1024.00
2023-03-16T00:41:59.219Z,1020.00
2023-03-16T00:45:59.430Z,1018.00
2023-03-16T00:49:59.618Z,1010.00
2023-03-16T00:53:59.835Z,1005.00
2023-03-16T00:58:00.086Z,996.00
2023-03-16T01:02:00.189Z,999.00
2023-03-16T01:06:00.410Z,995.00
2023-03-16T01:10:00.592Z,994.00
2023-03-16T01:14:00.769Z,986.00
2023-03-16T01:18:01.005Z,980.00
2023-03-16T01:22:01.181Z,975.00
2023-03-16T01:26:01.360Z,974.00
2023-03-16T01:30:01.596Z,973.00
2023-03-16T01:34:01.828Z,968.00
2023-03-16T01:38:02.001Z,962.00
2023-03-16T01:42:02.217Z,959.00
2023-03-16T01:46:02.548Z,957.00
2023-03-16T01:50:02.655Z,951.00
2023-03-16T01:54:02.835Z,946.00
2023-03-16T01:58:03.078Z,942.00
2023-03-16T02:02:03.309Z,939.00
2023-03-16T02:06:03.485Z,938.00
2023-03-16T02:10:03.459Z,935.00
2023-03-16T02:14:03.441Z,936.00
2023-03-16T02:18:03.419Z,930.00
2023-03-16T02:22:03.338Z,925.00
2023-03-16T02:26:03.348Z,915.00
2023-03-16T02:30:03.273Z,907.00
2023-03-16T02:34:03.250Z,908.00
2023-03-16T02:38:03.314Z,910.00
2023-03-16T02:42:03.200Z,899.00
2023-03-16T02:46:03.211Z,901.00
2023-03-16T02:50:03.394Z,895.00
2023-03-16T02:54:03.801Z,892.00
2023-03-16T02:58:03.332Z,888.00
2023-03-16T03:02:03.321Z,888.00
2023-03-16T03:06:03.257Z,882.00
2023-03-16T03:10:03.216Z,880.00
2023-03-16T03:14:03.229Z,877.00
2023-03-16T03:18:03.125Z,875.00
2023-03-16T03:22:03.113Z,867.00
2023-03-16T03:26:03.285Z,863.00
2023-03-16T03:30:03.253Z,865.00
2023-03-16T03:34:03.186Z,857.00
2023-03-16T03:38:03.120Z,853.00
2023-03-16T03:42:03.085Z,852.00
2023-03-16T03:46:03.325Z,846.00
2023-03-16T03:50:03.028Z,847.00
2023-03-16T03:54:02.994Z,843.00
2023-03-16T03:58:02.956Z,843.00
2023-03-16T04:02:03.046Z,840.00
2023-03-16T04:06:02.894Z,838.00
2023-03-16T04:10:02.836Z,840.00
2023-03-16T04:14:02.854Z,836.00
2023-03-16T04:18:02.796Z,831.00
2023-03-16T04:22:02.771Z,826.00
2023-03-16T04:26:02.729Z,826.00
2023-03-16T04:30:02.720Z,828.00
2023-03-16T04:34:02.660Z,818.00
2023-03-16T04:38:02.607Z,818.00
2023-03-16T04:42:02.560Z,821.00
2023-03-16T04:46:02.868Z,816.00
2023-03-16T04:50:02.871Z,813.00
2023-03-16T04:54:02.800Z,807.00
2023-03-16T04:58:02.760Z,803.00
2023-03-16T05:02:02.735Z,804.00
2023-03-16T05:06:02.774Z,806.00
2023-03-16T05:10:02.638Z,805.00
2023-03-16T05:14:02.581Z,799.00
2023-03-16T05:18:02.581Z,799.00
2023-03-16T05:22:02.558Z,796.00
2023-03-16T05:26:02.503Z,797.00
2023-03-16T05:30:02.501Z,798.00
2023-03-16T05:34:02.535Z,801.00
2023-03-16T05:38:02.480Z,792.00
2023-03-16T05:42:02.440Z,793.00
2023-03-16T05:46:02.420Z,788.00
2023-03-16T05:50:02.365Z,777.00
2023-03-16T05:54:02.318Z,774.00
2023-03-16T05:58:03.807Z,766.00
2023-03-16T06:02:02.283Z,769.00
2023-03-16T06:06:02.232Z,769.00
2023-03-16T06:10:02.205Z,765.00
2023-03-16T06:14:02.122Z,756.00
2023-03-16T06:18:02.147Z,758.00
2023-03-16T06:22:02.106Z,752.00
2023-03-16T06:26:02.069Z,753.00
2023-03-16T06:30:02.039Z,758.00
2023-03-16T06:34:01.991Z,750.00
2023-03-16T06:38:01.986Z,746.00
2023-03-16T06:42:01.925Z,748.00
2023-03-16T06:46:01.945Z,743.00
2023-03-16T06:50:01.909Z,740.00
2023-03-16T06:54:01.823Z,740.00
2023-03-16T06:58:01.798Z,741.00
2023-03-16T07:02:01.740Z,737.00
2023-03-16T07:06:01.700Z,734.00
2023-03-16T07:10:01.704Z,731.00
2023-03-16T07:14:01.613Z,727.00
2023-03-16T07:18:01.581Z,725.00
2023-03-16T07:22:01.569Z,718.00
2023-03-16T07:26:01.537Z,717.00
2023-03-16T07:30:01.522Z,708.00
2023-03-16T07:34:01.443Z,707.00
2023-03-16T07:38:01.432Z,719.00
2023-03-16T07:42:01.700Z,707.00
2023-03-16T07:46:01.816Z,696.00
2023-03-16T07:50:01.912Z,695.00
2023-03-16T07:54:02.019Z,692.00
2023-03-16T07:58:02.149Z,695.00
2023-03-16T08:02:02.321Z,695.00
2023-03-16T08:06:02.269Z,674.00
2023-03-16T08:10:02.402Z,684.00
2023-03-16T08:14:02.635Z,689.00
2023-03-16T08:18:02.663Z,696.00
2023-03-16T08:22:02.806Z,696.00
2023-03-16T08:26:02.865Z,699.00
2023-03-16T08:30:03.020Z,703.00
2023-03-16T08:34:03.189Z,708.00
2023-03-16T08:38:03.178Z,702.00
2023-03-16T08:42:03.294Z,697.00
2023-03-16T08:46:03.518Z,698.00
2023-03-16T08:50:03.524Z,695.00
2023-03-16T08:54:03.442Z,691.00
2023-03-16T08:58:03.429Z,741.00
2023-03-16T09:02:03.431Z,724.00
2023-03-16T09:06:03.309Z,724.00
2023-03-16T09:10:03.274Z,722.00
2023-03-16T09:14:03.238Z,725.00
2023-03-16T09:18:03.200Z,725.00
2023-03-16T09:22:03.157Z,724.00
2023-03-16T09:26:03.182Z,722.00
2023-03-16T09:30:03.111Z,720.00
2023-03-16T09:34:03.123Z,717.00
2023-03-16T09:38:06.010Z,714.00
2023-03-16T09:42:03.226Z,715.00
2023-03-16T09:46:03.245Z,716.00
2023-03-16T09:50:03.146Z,729.00
2023-03-16T09:54:03.067Z,739.00
2023-03-16T09:58:03.089Z,749.00
2023-03-16T10:02:03.032Z,752.00
2023-03-16T10:06:03.017Z,762.00
2023-03-16T10:10:02.978Z,769.00
2023-03-16T10:14:02.970Z,775.00
2023-03-16T10:18:02.908Z,786.00
2023-03-16T10:22:02.863Z,786.00
2023-03-16T10:26:02.856Z,794.00
2023-03-16T10:30:02.795Z,789.00
2023-03-16T10:34:02.749Z,793.00
2023-03-16T10:38:02.742Z,791.00
2023-03-16T10:42:02.676Z,793.00
2023-03-16T10:46:02.893Z,793.00
2023-03-16T10:50:02.696Z,788.00
2023-03-16T10:54:02.592Z,783.00
2023-03-16T10:58:02.538Z,785.00
2023-03-16T11:02:02.538Z,790.00
2023-03-16T11:06:02.653Z,791.00
2023-03-16T11:10:02.469Z,794.00
2023-03-16T11:14:02.516Z,790.00
2023-03-16T11:18:02.517Z,788.00
2023-03-16T11:22:02.585Z,787.00
2023-03-16T11:26:02.529Z,790.00
2023-03-16T11:30:02.296Z,795.00
2023-03-16T11:34:02.522Z,793.00
2023-03-16T11:38:02.570Z,799.00
2023-03-16T11:42:02.549Z,810.00
2023-03-16T11:46:02.633Z,814.00
2023-03-16T11:50:02.153Z,832.00
2023-03-16T11:54:02.562Z,827.00
2023-03-16T11:58:02.078Z,829.00
2023-03-16T12:02:02.030Z,833.00
2023-03-16T12:06:05.719Z,831.00
2023-03-16T12:10:02.958Z,833.00
2023-03-16T12:14:02.071Z,825.00
2023-03-16T12:18:02.027Z,822.00
2023-03-16T12:22:01.863Z,816.00
2023-03-16T12:26:01.957Z,813.00
2023-03-16T12:30:02.051Z,814.00
2023-03-16T12:34:02.176Z,810.00
2023-03-16T12:38:02.563Z,809.00
2023-03-16T12:42:02.608Z,805.00
2023-03-16T12:46:02.634Z,807.00
2023-03-16T12:50:02.773Z,807.00
2023-03-16T12:54:03.077Z,808.00
2023-03-16T12:58:03.558Z,808.00
2023-03-16T13:02:03.609Z,812.00
2023-03-16T13:06:03.435Z,814.00
2023-03-16T13:10:03.667Z,811.00
2023-03-16T13:14:04.098Z,811.00
2023-03-16T13:18:04.576Z,808.00
2023-03-16T13:22:04.076Z,809.00
2023-03-16T13:26:04.572Z,810.00
2023-03-16T13:30:04.110Z,810.00
2023-03-16T13:34:03.911Z,808.00
2023-03-16T13:38:03.904Z,811.00
2023-03-16T13:42:03.882Z,805.00
2023-03-16T13:46:03.867Z,796.00
2023-03-16T13:50:03.797Z,798.00
2023-03-16T13:54:04.106Z,788.00
2023-03-16T13:58:03.980Z,788.00
2023-03-16T14:02:11.206Z,787.00
2023-03-16T14:06:04.109Z,782.00
2023-03-16T14:10:04.036Z,778.00
2023-03-16T14:14:04.165Z,778.00
2023-03-16T14:18:03.924Z,773.00
2023-03-16T14:22:04.131Z,771.00
2023-03-16T14:26:04.141Z,774.00
2023-03-16T14:30:03.870Z,771.00
2023-03-16T14:34:04.145Z,771.00
2023-03-16T14:38:03.773Z,778.00
2023-03-16T14:42:04.143Z,778.00
2023-03-16T14:46:03.746Z,779.00
2023-03-16T14:50:04.133Z,777.00
2023-03-16T14:54:03.642Z,782.00
2023-03-16T14:58:03.608Z,783.00
2023-03-16T15:02:03.714Z,778.00
2023-03-16T15:06:03.547Z,780.00
2023-03-16T15:10:03.677Z,779.00
2023-03-16T15:14:03.575Z,779.00
2023-03-16T15:18:04.138Z,774.00
2023-03-16T15:22:03.753Z,773.00
2023-03-16T15:26:04.191Z,769.00
2023-03-16T15:30:04.150Z,767.00
2023-03-16T15:34:03.976Z,768.00
2023-03-16T15:38:04.150Z,758.00
2023-03-16T15:42:04.094Z,756.00
2023-03-16T15:46:04.681Z,754.00
2023-03-16T15:50:04.697Z,749.00
2023-03-16T15:54:04.254Z,742.00
2023-03-16T15:58:04.692Z,746.00
2023-03-16T16:02:04.647Z,744.00
2023-03-16T16:06:04.493Z,741.00
2023-03-16T16:10:04.681Z,735.00
2023-03-16T16:14:04.677Z,736.00
2023-03-16T16:18:21.816Z,732.00
2023-03-16T16:22:06.189Z,734.00
2023-03-16T16:26:05.186Z,730.00
2023-03-16T16:30:04.925Z,726.00
2023-03-16T16:34:05.153Z,725.00
2023-03-16T16:38:05.177Z,720.00
2023-03-16T16:42:05.662Z,716.00
2023-03-16T16:46:05.477Z,716.00
2023-03-16T16:50:05.579Z,708.00
2023-03-16T16:54:05.700Z,707.00
2023-03-16T16:58:12.357Z,708.00
2023-03-16T17:02:06.852Z,707.00
2023-03-16T17:06:05.930Z,702.00
2023-03-16T17:10:06.051Z,698.00
2023-03-16T17:14:06.700Z,692.00
2023-03-16T17:18:06.699Z,691.00
2023-03-16T17:22:06.696Z,685.00
2023-03-16T17:26:06.754Z,684.00
2023-03-16T17:30:06.942Z,688.00
2023-03-16T17:34:07.215Z,686.00
2023-03-16T17:38:07.682Z,687.00
2023-03-16T17:42:07.446Z,689.00
2023-03-16T17:46:07.642Z,690.00
2023-03-16T17:50:08.183Z,691.00
2023-03-16T17:54:08.023Z,695.00
2023-03-16T17:58:08.214Z,691.00
2023-03-16T18:02:08.757Z,687.00
2023-03-16T18:06:08.496Z,690.00
2023-03-16T18:10:08.741Z,686.00
2023-03-16T18:14:08.871Z,683.00
2023-03-16T18:18:09.213Z,683.00
2023-03-16T18:22:09.254Z,679.00
2023-03-16T18:26:09.456Z,678.00
2023-03-16T18:30:09.740Z,675.00
2023-03-16T18:34:10.250Z,675.00
2023-03-16T18:38:10.198Z,676.00
2023-03-16T18:42:10.250Z,672.00
2023-03-16T18:46:10.424Z,674.00
2023-03-16T18:50:10.664Z,671.00
2023-03-16T18:54:11.262Z,668.00
2023-03-16T18:58:11.755Z,665.00
2023-03-16T19:02:11.216Z,663.00
2023-03-16T19:06:11.244Z,662.00
2023-03-16T19:10:10.976Z,661.00
2023-03-16T19:14:11.222Z,658.00
2023-03-16T19:18:12.816Z,659.00
2023-03-16T19:22:10.879Z,658.00
2023-03-16T19:26:11.222Z,723.00
2023-03-16T19:30:11.222Z,861.00
2023-03-16T19:34:10.837Z,1006.00
2023-03-16T19:38:11.230Z,946.00
2023-03-16T19:42:11.454Z,1010.00
2023-03-16T19:46:10.759Z,1024.00
2023-03-16T19:50:10.746Z,1123.00
2023-03-16T19:54:10.760Z,1160.00
2023-03-16T19:58:10.615Z,1203.00
2023-03-16T20:02:10.585Z,1263.00
2023-03-16T20:06:10.572Z,1316.00
2023-03-16T20:10:10.803Z,1381.00
2023-03-16T20:14:10.483Z,1461.00
2023-03-16T20:18:10.432Z,1492.00
2023-03-16T20:22:10.753Z,1515.00
2023-03-16T20:26:10.800Z,1533.00
2023-03-16T20:30:10.333Z,1621.00
2023-03-16T20:34:10.752Z,1636.00
2023-03-16T20:38:10.252Z,1651.00
2023-03-16T20:42:10.266Z,1668.00
2023-03-16T20:46:10.824Z,1737.00
2023-03-16T20:50:10.469Z,1761.00
2023-03-16T20:54:10.783Z,1638.00
2023-03-16T20:58:10.443Z,1572.00
2023-03-16T21:02:10.460Z,1568.00
2023-03-16T21:06:10.761Z,1561.00
2023-03-16T21:10:10.545Z,1553.00
2023-03-16T21:14:10.514Z,1546.00
2023-03-16T21:18:10.540Z,1539.00
2023-03-16T21:22:10.589Z,1532.00
2023-03-16T21:26:10.607Z,1522.00
2023-03-16T21:30:10.734Z,1512.00
2023-03-16T21:34:10.798Z,1500.00
2023-03-16T21:38:10.883Z,1486.00
2023-03-16T21:42:10.964Z,1474.00
2023-03-16T21:46:11.105Z,1469.00
2023-03-16T21:50:11.066Z,1461.00
2023-03-16T21:54:11.133Z,1449.00
2023-03-16T21:58:11.246Z,1440.00
2023-03-16T22:02:11.415Z,1431.00
2023-03-16T22:06:13.474Z,1416.00
2023-03-16T22:10:11.456Z,1400.00
2023-03-16T22:14:11.554Z,1387.00
2023-03-16T22:18:11.613Z,1383.00
2023-03-16T22:22:11.697Z,1380.00
2023-03-16T22:26:11.766Z,1365.00
2023-03-16T22:30:11.860Z,1358.00
2023-03-16T22:34:11.974Z,1348.00
2023-03-16T22:38:12.111Z,1338.00
2023-03-16T22:42:12.177Z,1328.00
2023-03-16T22:46:12.345Z,1326.00
2023-03-16T22:50:12.400Z,1315.00
2023-03-16T22:54:12.545Z,1310.00
2023-03-16T22:58:12.676Z,1300.00
2023-03-16T23:02:12.774Z,1295.00
2023-03-16T23:06:13.336Z,1287.00
2023-03-16T23:10:13.018Z,1281.00
2023-03-16T23:14:13.184Z,1272.00
2023-03-16T23:18:13.317Z,1260.00
2023-03-16T23:22:13.439Z,1256.00
2023-03-16T23:26:13.521Z,1255.00
2023-03-16T23:30:13.634Z,1243.00
2023-03-16T23:34:13.766Z,1234.00
2023-03-16T23:38:13.924Z,1225.00
2023-03-16T23:42:14.330Z,1213.00
2023-03-16T23:46:14.267Z,1207.00
2023-03-16T23:50:14.294Z,1200.00
2023-03-16T23:54:14.447Z,1193.00
2023-03-16T23:58:14.634Z,1188.00
